Terminal Aerodrome Forecast
Issued by NWS Atlanta, GA

Home | Current Version | Previous Version | Text Only | Print | Product List | Glossary On
Versions: 1 2 3 4 5 6 7 8 9 10 11 12 13 14 15 16 17 18 19
272
FTUS42 KFFC 270524
TAFMCN
TAF
KMCN 270524Z 2706/2806 30005KT 3/4SM BR OVC002
      TEMPO 2706/2710 1/4SM FG VV001
     FM271300 32005KT P6SM BKN005
     FM271500 33006KT P6SM SCT012
     FM271700 30007KT P6SM SCT200
     FM280300 VRB03KT P6SM SKC=

USA.gov is the U.S. government's official web portal to all federal, state and local government web resources and services.